Time;durP1;ratioP1;P1;durP2;ratioP2;P2;SDS_P1;SDS_P2;PMS_P1;PMS_P2;Temp;Humidity;BMP_temperature;BMP_pressure;BME280_temperature;BME280_humidity;BME280_pressure;Samples;Min_cycle;Max_cycle;Signal;HPM_P1;HPM_P2
2022/08/17 00:02:00;;;;;;;6.50;5.70;;;;;;;27.06;43.45;99054.06;4150762;28;20297;-68
2022/08/17 00:04:11;;;;;;;9.23;5.50;;;;;;;27.31;42.92;99044.00;4150388;28;20236;-66
2022/08/17 00:06:17;;;;;;;8.25;5.68;;;;;;;27.41;42.72;99054.03;4153106;28;20256;-66
2022/08/17 00:08:23;;;;;;;6.22;5.28;;;;;;;27.41;42.51;99051.28;4151136;28;20622;-66
2022/08/17 00:10:25;;;;;;;10.63;5.38;;;;;;;27.17;43.41;99059.44;4151899;28;20236;-66
2022/08/17 00:12:26;;;;;;;6.53;5.90;;;;;;;27.33;42.71;99060.94;4153937;28;20664;-68
2022/08/17 00:14:44;;;;;;;7.35;5.70;;;;;;;26.89;43.91;99062.63;4153152;28;20249;-68
2022/08/17 00:16:49;;;;;;;7.18;5.95;;;;;;;27.89;42.06;99056.81;4152227;28;20240;-67
2022/08/17 00:19:00;;;;;;;7.78;5.55;;;;;;;27.71;42.63;99063.84;4147871;28;20244;-66
2022/08/17 00:21:10;;;;;;;6.85;6.10;;;;;;;27.73;42.16;99061.63;4151815;28;20684;-66
2022/08/17 00:23:15;;;;;;;7.15;6.45;;;;;;;27.95;41.84;99065.75;4156732;28;20232;-66
2022/08/17 00:25:18;;;;;;;7.10;6.03;;;;;;;27.83;42.21;99070.81;4148591;28;20769;-66
2022/08/17 00:27:20;;;;;;;7.20;6.50;;;;;;;28.01;42.13;99064.59;4154414;28;20302;-66
2022/08/17 00:29:22;;;;;;;7.63;6.60;;;;;;;27.92;41.82;99067.16;4152814;28;20254;-66
2022/08/17 00:31:23;;;;;;;7.20;6.35;;;;;;;28.13;42.04;99069.63;4153078;28;20237;-66
2022/08/17 00:33:28;;;;;;;8.93;6.28;;;;;;;27.89;42.03;99078.66;4149696;28;20292;-67
2022/08/17 00:35:30;;;;;;;7.60;6.72;;;;;;;27.21;42.90;99079.59;4154168;28;20292;-66
2022/08/17 00:37:32;;;;;;;7.50;6.13;;;;;;;26.83;43.61;99063.75;4150988;28;20810;-67
2022/08/17 00:39:33;;;;;;;7.93;6.50;;;;;;;26.94;43.92;99058.22;4152970;28;20721;-66
2022/08/17 00:41:35;;;;;;;7.15;6.47;;;;;;;27.13;43.51;99064.66;4153912;28;20249;-66
2022/08/17 00:43:52;;;;;;;8.25;7.18;;;;;;;26.91;44.01;99054.16;4155055;28;20248;-66
2022/08/17 00:45:54;;;;;;;8.00;7.20;;;;;;;26.29;44.59;99061.91;4149021;28;20247;-68
2022/08/17 00:47:56;;;;;;;7.82;6.93;;;;;;;25.86;45.40;99064.22;4152855;28;21836;-69
2022/08/17 00:49:58;;;;;;;7.22;6.53;;;;;;;25.83;45.49;99045.72;4156640;28;20278;-66
2022/08/17 00:52:07;;;;;;;8.30;6.80;;;;;;;25.65;45.90;99041.69;4156840;28;20237;-66
2022/08/17 00:54:14;;;;;;;8.85;7.15;;;;;;;25.37;46.36;99036.59;4154193;28;20240;-67
2022/08/17 00:56:21;;;;;;;8.20;7.40;;;;;;;25.57;46.12;99019.38;4155621;28;20221;-68
2022/08/17 00:58:23;;;;;;;10.75;7.32;;;;;;;25.57;46.28;99032.19;4157851;28;20294;-67
2022/08/17 01:00:43;;;;;;;7.20;6.50;;;;;;;25.44;46.47;99022.66;4156604;28;20236;-68
2022/08/17 01:02:46;;;;;;;8.30;7.07;;;;;;;24.73;47.91;99020.78;4155007;28;20244;-67
2022/08/17 01:04:51;;;;;;;7.97;7.17;;;;;;;24.81;47.69;99009.38;4157137;28;20240;-67
2022/08/17 01:06:53;;;;;;;8.00;7.20;;;;;;;24.87;47.31;99011.03;4154811;28;20294;-67
2022/08/17 01:08:58;;;;;;;9.47;7.53;;;;;;;24.40;48.67;99006.63;4154068;28;20233;-67
2022/08/17 01:11:01;;;;;;;10.40;7.10;;;;;;;24.98;47.46;99011.84;4156796;28;20286;-67
2022/08/17 01:13:03;;;;;;;8.27;7.40;;;;;;;25.07;47.33;99009.38;4147847;28;20232;-67
2022/08/17 01:15:05;;;;;;;8.67;7.10;;;;;;;25.30;46.35;99014.25;4154990;28;20785;-66
2022/08/17 01:17:07;;;;;;;7.63;6.45;;;;;;;24.91;47.24;99006.66;4157463;28;20457;-67
2022/08/17 01:19:16;;;;;;;7.17;6.50;;;;;;;24.51;47.86;99024.53;4156862;28;20294;-67
2022/08/17 01:21:54;;;;;;;10.80;7.30;;;;;;;24.77;47.81;99006.41;4156139;28;20228;-68
2022/08/17 01:23:56;;;;;;;8.00;7.20;;;;;;;23.97;48.98;99019.47;4136697;28;20817;-67
2022/08/17 01:26:00;;;;;;;7.50;6.60;;;;;;;24.46;48.17;99010.94;4154435;28;20338;-67
2022/08/17 01:28:02;;;;;;;8.20;7.40;;;;;;;24.10;48.98;99002.69;4154915;28;20817;-67
2022/08/17 01:30:08;;;;;;;8.70;7.80;;;;;;;24.04;49.28;99001.03;4157110;28;20224;-67
2022/08/17 01:32:30;;;;;;;9.23;7.40;;;;;;;24.37;48.65;98991.66;4155430;28;20261;-66
2022/08/17 01:34:32;;;;;;;8.13;7.07;;;;;;;24.63;47.78;99006.09;4155451;28;20290;-67
2022/08/17 01:36:46;;;;;;;7.83;6.93;;;;;;;24.02;48.66;99019.50;4152598;28;20705;-68
2022/08/17 01:38:48;;;;;;;9.40;7.20;;;;;;;24.36;48.59;99008.22;4153961;28;20252;-67
2022/08/17 01:40:53;;;;;;;9.07;6.80;;;;;;;24.16;48.84;99017.09;4156070;28;20240;-67
2022/08/17 01:43:06;;;;;;;12.57;7.37;;;;;;;24.00;49.20;99014.34;4157184;28;20656;-67
2022/08/17 01:45:12;;;;;;;7.90;7.10;;;;;;;23.85;49.42;99001.50;4156251;28;20673;-68
2022/08/17 01:47:14;;;;;;;9.43;7.60;;;;;;;24.04;49.24;99006.47;4154575;28;20240;-66
2022/08/17 01:49:16;;;;;;;8.40;7.47;;;;;;;24.05;48.74;99010.81;4156452;28;20287;-67
2022/08/17 01:51:18;;;;;;;7.97;6.90;;;;;;;24.57;47.76;99020.75;4156650;28;20279;-67
2022/08/17 01:53:35;;;;;;;7.70;7.00;;;;;;;24.46;48.22;99025.38;4154270;28;20236;-67
2022/08/17 01:55:46;;;;;;;7.43;6.73;;;;;;;24.57;47.82;99028.09;4152381;28;20960;-67
2022/08/17 01:57:47;;;;;;;7.67;6.87;;;;;;;24.61;47.73;99030.00;4152101;28;20233;-67
2022/08/17 01:59:49;;;;;;;7.43;6.67;;;;;;;24.44;48.11;99037.59;4152400;28;20287;-67
2022/08/17 02:01:51;;;;;;;8.87;6.90;;;;;;;24.07;48.82;99038.53;4153319;28;20286;-66
2022/08/17 02:03:54;;;;;;;7.33;6.73;;;;;;;24.66;47.70;99031.91;4156190;28;20245;-67
2022/08/17 02:06:03;;;;;;;11.40;8.07;;;;;;;24.99;46.98;99046.09;4152883;28;20238;-67
2022/08/17 02:08:08;;;;;;;7.63;6.87;;;;;;;25.53;46.02;99042.00;4156632;28;20268;-67
2022/08/17 02:10:20;;;;;;;8.23;6.90;;;;;;;26.06;44.87;99064.16;4143305;28;20232;-67
2022/08/17 02:12:23;;;;;;;7.93;7.13;;;;;;;25.89;45.12;99063.66;4155825;28;20229;-67
2022/08/17 02:14:40;;;;;;;8.17;7.07;;;;;;;25.88;45.19;99078.38;4155268;28;20233;-66
2022/08/17 02:16:41;;;;;;;7.70;6.57;;;;;;;26.25;44.40;99072.56;4150330;28;20237;-67
2022/08/17 02:18:45;;;;;;;8.80;6.47;;;;;;;26.38;44.16;99067.56;4155536;28;20709;-68
2022/08/17 02:20:46;;;;;;;7.33;6.60;;;;;;;26.29;44.36;99076.34;4153933;28;20302;-68
2022/08/17 02:22:48;;;;;;;7.60;6.37;;;;;;;26.69;43.87;99070.97;4152706;28;20294;-67
2022/08/17 02:24:52;;;;;;;7.53;6.70;;;;;;;26.81;43.39;99073.34;4156439;28;20244;-67
2022/08/17 02:27:02;;;;;;;8.27;7.05;;;;;;;26.63;43.76;99077.53;4153425;28;20228;-68
2022/08/17 02:29:04;;;;;;;7.00;6.30;;;;;;;27.16;42.53;99077.75;4154777;28;20267;-68
2022/08/17 02:31:09;;;;;;;7.13;6.43;;;;;;;26.90;42.96;99074.34;4151057;28;20240;-67
2022/08/17 02:33:11;;;;;;;7.07;6.30;;;;;;;26.76;43.45;99076.91;4151297;28;20232;-67
2022/08/17 02:35:13;;;;;;;7.53;6.50;;;;;;;26.22;43.94;99081.28;4150042;28;20282;-67
2022/08/17 02:37:19;;;;;;;7.07;6.38;;;;;;;26.31;44.32;99079.59;4135677;28;20708;-66
2022/08/17 02:39:21;;;;;;;7.40;6.13;;;;;;;26.75;43.69;99079.91;4139087;28;20225;-67
2022/08/17 02:41:23;;;;;;;6.57;5.45;;;;;;;26.23;44.23;99087.53;4130144;28;20236;-66
2022/08/17 02:43:26;;;;;;;7.13;5.95;;;;;;;26.50;44.39;99077.09;4134416;28;20229;-67
2022/08/17 02:45:27;;;;;;;7.63;6.22;;;;;;;26.50;44.02;99087.13;4138672;28;20284;-66
2022/08/17 02:47:30;;;;;;;8.40;6.65;;;;;;;26.82;43.07;99105.75;4139041;28;20241;-66
2022/08/17 02:49:31;;;;;;;8.18;6.57;;;;;;;23.99;47.61;99166.66;4137424;28;20229;-67
2022/08/17 02:51:34;;;;;;;7.82;6.32;;;;;;;24.05;48.52;99138.47;4137353;28;20234;-67
2022/08/17 02:53:35;;;;;;;7.50;6.60;;;;;;;25.64;45.77;99078.97;4138997;28;21912;-67
2022/08/17 02:55:39;;;;;;;8.05;6.65;;;;;;;26.56;43.72;99101.59;4136793;28;20702;-67
2022/08/17 02:57:41;;;;;;;8.80;6.50;;;;;;;23.32;48.96;99182.41;4133157;28;20263;-67
2022/08/17 02:59:43;;;;;;;7.78;6.78;;;;;;;23.96;48.98;99138.16;4134608;28;20238;-66
2022/08/17 03:01:49;;;;;;;7.00;6.30;;;;;;;24.99;46.98;99139.38;4137758;28;20237;-67
2022/08/17 03:03:51;;;;;;;7.13;6.38;;;;;;;24.82;47.00;99144.25;4138121;28;20248;-67
2022/08/17 03:05:53;;;;;;;7.67;6.53;;;;;;;25.47;45.79;99130.19;4138396;28;20257;-68
2022/08/17 03:07:55;;;;;;;9.82;6.72;;;;;;;25.84;45.37;99143.47;4138242;28;20245;-67
2022/08/17 03:09:58;;;;;;;7.70;6.05;;;;;;;25.39;46.27;99147.84;4138796;28;20303;-67
2022/08/17 03:12:05;;;;;;;7.53;6.72;;;;;;;25.85;45.18;99138.84;4137972;28;20710;-67
2022/08/17 03:14:07;;;;;;;7.78;6.40;;;;;;;26.29;44.29;99130.03;4138261;28;20240;-67
2022/08/17 03:16:09;;;;;;;6.75;6.05;;;;;;;26.57;43.66;99150.38;4138040;28;20233;-66
2022/08/17 03:18:16;;;;;;;7.10;6.40;;;;;;;26.11;44.41;99151.31;4138215;28;20237;-67
2022/08/17 03:20:29;;;;;;;7.10;5.85;;;;;;;26.52;44.11;99136.75;4139242;28;20559;-67
2022/08/17 03:22:39;;;;;;;6.78;6.05;;;;;;;26.91;43.25;99138.72;4138916;28;20225;-68
2022/08/17 03:24:41;;;;;;;7.90;7.03;;;;;;;27.01;42.79;99141.38;4137074;28;20244;-67
2022/08/17 03:26:42;;;;;;;7.20;6.15;;;;;;;27.26;42.85;99148.59;4132017;28;20664;-67
2022/08/17 03:28:44;;;;;;;6.55;5.88;;;;;;;26.63;43.55;99140.25;4137253;28;20327;-67
2022/08/17 03:30:46;;;;;;;6.88;6.15;;;;;;;27.16;43.29;99145.13;4138343;28;20674;-68
2022/08/17 03:32:50;;;;;;;10.43;5.63;;;;;;;27.14;42.94;99150.06;4138802;28;20550;-68
2022/08/17 03:34:57;;;;;;;6.88;5.95;;;;;;;26.80;43.21;99148.06;4135317;28;20344;-69
2022/08/17 03:36:59;;;;;;;9.30;6.43;;;;;;;26.74;43.57;99130.94;4136158;28;20228;-66
2022/08/17 03:39:01;;;;;;;8.00;6.60;;;;;;;27.18;42.87;99132.84;4138923;28;20237;-66
2022/08/17 03:41:04;;;;;;;7.18;6.40;;;;;;;27.23;42.93;99132.00;4136924;28;20307;-66
2022/08/17 03:43:07;;;;;;;7.57;6.07;;;;;;;27.21;42.59;99142.34;4133685;28;20303;-65
2022/08/17 03:45:13;;;;;;;7.00;6.30;;;;;;;25.58;44.93;99159.03;4138238;28;20237;-67
2022/08/17 03:56:48;;;;;;;7.90;5.38;;;;;;;23.49;50.59;99128.03;4137713;28;20681;-66
2022/08/17 03:58:50;;;;;;;7.13;6.40;;;;;;;23.66;50.14;99107.00;4140211;28;20596;-66
2022/08/17 04:00:53;;;;;;;7.45;6.25;;;;;;;24.37;48.86;99108.47;4140738;28;20283;-66
2022/08/17 04:02:56;;;;;;;6.85;6.15;;;;;;;24.77;47.71;99126.03;4141064;28;20237;-64
2022/08/17 04:04:58;;;;;;;8.18;6.10;;;;;;;25.59;46.42;99117.94;4140931;28;20241;-64
2022/08/17 04:07:00;;;;;;;6.93;5.95;;;;;;;26.02;45.70;99122.22;4139629;28;20264;-64
2022/08/17 04:09:01;;;;;;;6.30;5.70;;;;;;;25.93;46.14;99130.09;4141825;28;20241;-64
2022/08/17 04:11:03;;;;;;;6.20;5.60;;;;;;;26.19;45.48;99144.50;4135025;28;20234;-64
2022/08/17 04:13:05;;;;;;;8.05;6.15;;;;;;;26.48;44.67;99136.47;4135207;28;20238;-64
2022/08/17 04:15:07;;;;;;;7.93;5.90;;;;;;;25.79;45.64;99151.66;4136534;28;20299;-64
2022/08/17 04:17:09;;;;;;;8.38;6.30;;;;;;;24.28;48.47;99170.66;4136611;28;20284;-63
2022/08/17 04:19:11;;;;;;;7.18;5.68;;;;;;;23.62;51.00;99149.31;4139181;28;20275;-64
2022/08/17 04:21:12;;;;;;;10.30;6.80;;;;;;;23.56;51.07;99151.16;4138400;28;20289;-66
2022/08/17 04:23:17;;;;;;;7.88;7.05;;;;;;;24.74;49.10;99129.25;4139711;28;20230;-64
2022/08/17 04:25:19;;;;;;;7.38;6.72;;;;;;;24.72;48.69;99142.28;4140224;28;20233;-64
2022/08/17 04:27:20;;;;;;;10.80;6.88;;;;;;;24.91;48.91;99134.47;4140081;28;20260;-64
2022/08/17 04:29:22;;;;;;;8.18;7.13;;;;;;;24.93;49.25;99126.03;4139305;28;20713;-64
2022/08/17 04:31:25;;;;;;;9.82;7.40;;;;;;;23.83;51.60;99146.75;4140712;28;20702;-64
2022/08/17 04:33:28;;;;;;;10.63;7.38;;;;;;;23.90;51.66;99137.28;4141185;28;20233;-64
2022/08/17 04:35:33;;;;;;;9.48;7.47;;;;;;;25.53;48.35;99145.44;4140748;28;20280;-64
2022/08/17 04:37:34;;;;;;;8.18;7.28;;;;;;;25.51;48.37;99156.59;4140093;28;20233;-64
2022/08/17 04:39:36;;;;;;;8.77;7.90;;;;;;;24.27;51.35;99154.63;4135400;28;20256;-64
2022/08/17 04:43:58;;;;;;;9.85;8.02;;;;;;;23.10;53.26;99164.31;4137718;28;20237;-64
2022/08/17 04:46:04;;;;;;;9.50;7.38;;;;;;;23.31;53.49;99146.31;4140957;28;20237;-64
2022/08/17 04:48:05;;;;;;;10.70;7.95;;;;;;;24.58;50.66;99144.69;4136719;28;20229;-63
2022/08/17 04:50:07;;;;;;;12.02;8.07;;;;;;;24.12;51.46;99147.19;4139893;28;20711;-64
2022/08/17 04:52:10;;;;;;;9.82;7.78;;;;;;;25.44;48.63;99149.78;4139960;28;20330;-64
2022/08/17 04:54:31;;;;;;;11.45;7.95;;;;;;;24.63;49.93;99162.91;4126310;28;20360;-64
2022/08/17 04:56:34;;;;;;;9.00;7.78;;;;;;;25.78;48.19;99167.19;4136536;28;20282;-64
2022/08/17 04:58:35;;;;;;;10.10;8.35;;;;;;;24.93;49.04;99183.97;4138681;28;20286;-64
2022/08/17 05:00:37;;;;;;;9.18;8.20;;;;;;;25.35;49.19;99157.63;4136221;28;20304;-64
2022/08/17 05:02:47;;;;;;;8.80;7.95;;;;;;;26.09;47.79;99178.03;4136858;28;20233;-63
2022/08/17 05:04:51;;;;;;;8.50;7.63;;;;;;;24.92;49.40;99189.66;4136769;28;20237;-63
2022/08/17 05:06:55;;;;;;;8.35;7.45;;;;;;;24.43;51.21;99171.78;4132149;28;20722;-63
2022/08/17 05:08:58;;;;;;;8.23;7.10;;;;;;;24.26;50.87;99193.72;4136899;28;20236;-64
2022/08/17 05:11:00;;;;;;;9.73;7.80;;;;;;;24.27;51.82;99165.47;4134808;28;21462;-64
2022/08/17 05:13:07;;;;;;;9.32;7.57;;;;;;;23.35;53.71;99171.88;4134080;28;20229;-64
2022/08/17 05:15:14;;;;;;;10.18;7.88;;;;;;;23.80;52.87;99150.78;4136257;28;20855;-64
2022/08/17 05:17:16;;;;;;;9.32;8.43;;;;;;;24.10;52.34;99161.00;4134022;28;20234;-64
2022/08/17 05:19:18;;;;;;;9.50;8.07;;;;;;;24.58;51.51;99152.00;4136048;28;20233;-63
2022/08/17 05:21:21;;;;;;;8.68;7.88;;;;;;;25.02;50.36;99138.84;4136693;28;20283;-64
2022/08/17 05:23:25;;;;;;;9.27;8.32;;;;;;;25.55;49.09;99144.06;4136280;28;20229;-64
2022/08/17 05:25:32;;;;;;;9.43;7.95;;;;;;;24.36;51.65;99173.94;4135229;28;20288;-65
2022/08/17 05:27:37;;;;;;;8.63;7.72;;;;;;;24.86;50.52;99157.03;4135642;28;20989;-64
2022/08/17 05:29:41;;;;;;;8.38;7.43;;;;;;;25.32;49.78;99177.22;4136510;28;20241;-64
2022/08/17 05:31:43;;;;;;;10.18;7.57;;;;;;;25.73;48.74;99188.16;4134533;28;20323;-64
2022/08/17 05:33:45;;;;;;;9.88;7.53;;;;;;;25.15;50.16;99185.63;4138862;28;20663;-64
2022/08/17 05:35:49;;;;;;;9.23;7.95;;;;;;;25.40;48.96;99193.03;4138003;28;20237;-64
2022/08/17 05:37:52;;;;;;;8.88;7.38;;;;;;;26.27;47.83;99184.81;4138184;28;20237;-64
2022/08/17 05:39:57;;;;;;;10.23;7.55;;;;;;;26.66;46.58;99175.16;4137027;28;20232;-64
2022/08/17 05:42:01;;;;;;;8.38;7.50;;;;;;;26.23;47.91;99189.16;4139831;28;20237;-64
2022/08/17 05:44:03;;;;;;;11.55;8.23;;;;;;;26.36;47.09;99192.41;4139819;28;20240;-64
2022/08/17 05:46:24;;;;;;;8.23;7.30;;;;;;;27.13;46.61;99172.97;4139812;28;20236;-64
2022/08/17 05:48:26;;;;;;;9.13;8.20;;;;;;;27.43;45.51;99182.84;4133609;28;20229;-65
2022/08/17 05:51:02;;;;;;;8.23;7.40;;;;;;;27.58;45.57;99187.38;4135642;28;20241;-64
2022/08/17 05:53:47;;;;;;;11.40;7.15;;;;;;;26.93;46.73;99209.38;4134778;28;20722;-64
2022/08/17 05:56:21;;;;;;;9.68;7.80;;;;;;;27.19;46.50;99201.88;4139536;28;20229;-64
2022/08/17 05:58:46;;;;;;;8.38;7.50;;;;;;;26.38;48.14;99210.09;4138952;28;20651;-64
2022/08/17 06:00:59;;;;;;;11.80;7.78;;;;;;;27.03;47.05;99199.22;4138915;28;20241;-64
2022/08/17 06:03:13;;;;;;;8.63;7.68;;;;;;;27.24;47.02;99191.72;4138403;28;20287;-64
2022/08/17 06:05:52;;;;;;;8.98;8.15;;;;;;;27.50;46.40;99187.97;4139890;28;20740;-64
2022/08/17 06:08:08;;;;;;;11.30;7.68;;;;;;;27.11;46.32;99195.06;4138923;28;20287;-62
2022/08/17 06:10:21;;;;;;;9.55;7.32;;;;;;;25.83;49.32;99179.13;4138833;28;20283;-64
2022/08/17 06:12:29;;;;;;;11.57;7.40;;;;;;;26.30;48.19;99175.25;4138857;28;20948;-64
2022/08/17 06:14:35;;;;;;;8.55;7.75;;;;;;;24.68;51.31;99176.50;4139706;28;20327;-64
2022/08/17 06:16:43;;;;;;;8.20;7.40;;;;;;;25.74;49.30;99147.00;4139476;28;20229;-64
2022/08/17 06:19:29;;;;;;;7.78;6.97;;;;;;;26.01;49.21;99142.38;4138837;28;20259;-64
2022/08/17 06:21:38;;;;;;;8.35;6.75;;;;;;;24.75;50.86;99176.25;4110132;28;20269;-64
2022/08/17 06:23:47;;;;;;;9.30;7.07;;;;;;;24.72;51.43;99161.31;4133539;28;20287;-64
2022/08/17 06:25:54;;;;;;;8.57;7.78;;;;;;;23.81;53.57;99170.63;4134489;28;20229;-64
2022/08/17 06:28:13;;;;;;;9.43;6.90;;;;;;;24.01;53.07;99168.03;4134188;28;20803;-64
2022/08/17 06:30:25;;;;;;;8.52;7.57;;;;;;;23.93;53.49;99146.81;4134816;28;20287;-64
2022/08/17 06:32:28;;;;;;;8.25;7.45;;;;;;;25.69;50.09;99138.06;4133436;28;20217;-64
2022/08/17 06:34:31;;;;;;;11.63;7.25;;;;;;;24.60;52.22;99161.56;4131752;28;20225;-64
2022/08/17 06:37:02;;;;;;;11.15;8.35;;;;;;;24.76;51.92;99158.88;4135736;28;20659;-63
2022/08/17 06:39:26;;;;;;;9.13;7.38;;;;;;;25.86;49.63;99151.34;4132530;28;20235;-64
2022/08/17 06:41:37;;;;;;;9.75;7.57;;;;;;;24.75;51.20;99182.53;4135081;28;20281;-64
2022/08/17 06:44:06;;;;;;;10.02;7.60;;;;;;;26.36;48.55;99151.53;4133980;28;20245;-64
2022/08/17 06:46:40;;;;;;;9.38;7.00;;;;;;;26.36;48.26;99171.41;4136322;28;20221;-63
2022/08/17 06:48:51;;;;;;;8.93;7.72;;;;;;;26.51;48.16;99176.03;4133162;28;20485;-64
2022/08/17 06:51:15;;;;;;;12.48;8.20;;;;;;;27.10;47.10;99165.38;4135911;28;20292;-64
2022/08/17 06:53:30;;;;;;;9.07;7.72;;;;;;;26.91;47.65;99149.63;4126626;28;20744;-64
2022/08/17 06:55:45;;;;;;;11.35;8.18;;;;;;;27.07;47.31;99158.56;4133574;28;20233;-65
2022/08/17 06:57:52;;;;;;;8.88;7.43;;;;;;;27.34;46.65;99168.19;4133487;28;20241;-64
2022/08/17 07:00:06;;;;;;;10.25;8.00;;;;;;;27.05;47.51;99155.28;4145877;28;20294;-64
2022/08/17 07:02:17;;;;;;;10.43;7.57;;;;;;;27.24;47.64;99152.69;4142559;28;20232;-64
2022/08/17 07:04:33;;;;;;;10.85;7.18;;;;;;;27.08;47.29;99171.91;4136478;28;20228;-64
2022/08/17 07:07:00;;;;;;;7.85;7.05;;;;;;;27.31;47.98;99168.75;4148803;28;20232;-64
2022/08/17 07:09:12;;;;;;;11.02;7.20;;;;;;;26.65;49.54;99173.50;4148877;28;20237;-64
2022/08/17 07:11:40;;;;;;;10.27;7.53;;;;;;;26.18;50.18;99167.38;4148175;28;20236;-64
2022/08/17 07:13:56;;;;;;;8.60;6.95;;;;;;;27.16;48.39;99165.06;4127925;28;20246;-64
2022/08/17 07:16:50;;;;;;;9.73;7.82;;;;;;;26.79;49.42;99154.59;4132377;28;20229;-64
2022/08/17 07:18:55;;;;;;;9.05;7.60;;;;;;;27.36;47.92;99146.88;4131919;28;20262;-64
2022/08/17 07:21:06;;;;;;;11.00;7.10;;;;;;;27.60;47.52;99134.13;4157817;28;20228;-64
2022/08/17 07:23:43;;;;;;;9.50;7.35;;;;;;;27.73;47.32;99127.16;4158334;28;20259;-64
2022/08/17 07:25:44;;;;;;;8.93;6.93;;;;;;;25.70;49.95;99166.91;4128858;28;20231;-65
2022/08/17 07:27:50;;;;;;;7.78;6.88;;;;;;;25.74;51.54;99148.94;4155214;28;20292;-64
2022/08/17 07:29:59;;;;;;;8.00;6.85;;;;;;;25.92;51.64;99132.00;4158249;28;20240;-64
2022/08/17 07:32:01;;;;;;;7.55;6.75;;;;;;;26.37;50.51;99126.72;4159097;28;20232;-64
2022/08/17 07:34:13;;;;;;;7.60;6.25;;;;;;;26.46;50.88;99132.41;4157236;28;20236;-64
2022/08/17 07:36:33;;;;;;;11.10;7.35;;;;;;;27.38;48.85;99123.66;4157260;28;20979;-64
2022/08/17 07:38:54;;;;;;;8.45;7.55;;;;;;;27.42;48.62;99146.56;4157322;28;20228;-63
2022/08/17 07:41:05;;;;;;;9.48;7.68;;;;;;;27.25;49.14;99160.59;4159154;28;20298;-65
2022/08/17 07:43:13;;;;;;;9.00;7.07;;;;;;;26.87;49.77;99154.81;4157845;28;21125;-64
2022/08/17 07:50:28;;;;;;;12.07;7.40;;;;;;;26.66;50.38;99164.22;4154556;28;20232;-64
2022/08/17 07:52:31;;;;;;;9.18;7.75;;;;;;;26.97;49.93;99151.22;4154035;28;20244;-65
2022/08/17 07:54:53;;;;;;;9.00;8.10;;;;;;;26.92;50.56;99137.63;4153564;28;20244;-65
2022/08/17 07:56:59;;;;;;;9.30;8.35;;;;;;;27.11;50.23;99137.78;4154454;28;20240;-64
2022/08/17 07:59:18;;;;;;;8.10;6.85;;;;;;;27.24;49.79;99142.59;4157000;28;20287;-64
2022/08/17 08:01:24;;;;;;;8.48;6.43;;;;;;;27.18;49.78;99164.75;4158613;28;20315;-64
2022/08/17 08:03:44;;;;;;;7.28;6.40;;;;;;;27.44;49.56;99177.09;4153854;28;20687;-65
2022/08/17 08:06:00;;;;;;;8.40;7.05;;;;;;;25.57;53.12;99206.38;4153559;28;20701;-67
2022/08/17 08:08:17;;;;;;;7.57;6.45;;;;;;;26.81;50.59;99185.97;4152371;28;20228;-66
2022/08/17 08:10:30;;;;;;;8.40;6.03;;;;;;;27.08;50.31;99166.47;4156397;28;20251;-66
2022/08/17 08:12:41;;;;;;;7.55;6.75;;;;;;;27.15;50.49;99165.34;4154741;28;20294;-66
2022/08/17 08:14:54;;;;;;;7.45;6.75;;;;;;;27.18;50.91;99146.47;4151526;28;20240;-66
2022/08/17 08:16:59;;;;;;;8.00;6.53;;;;;;;27.32;49.64;99143.91;4156351;28;20249;-66
2022/08/17 08:19:01;;;;;;;7.57;6.68;;;;;;;27.92;48.48;99170.13;4156861;28;20236;-66
2022/08/17 08:21:11;;;;;;;7.68;6.97;;;;;;;27.50;49.46;99193.44;4153872;28;20597;-66
2022/08/17 08:23:32;;;;;;;7.13;6.32;;;;;;;27.79;48.72;99182.56;4158448;28;20221;-66
2022/08/17 08:25:47;;;;;;;8.38;6.70;;;;;;;27.17;50.49;99210.31;4150869;28;20290;-67
2022/08/17 08:28:23;;;;;;;8.25;6.25;;;;;;;26.57;51.87;99179.53;4154976;28;20236;-66
2022/08/17 08:30:27;;;;;;;8.63;6.70;;;;;;;26.32;52.18;99216.69;4154269;28;20620;-66
2022/08/17 08:32:48;;;;;;;7.35;6.38;;;;;;;27.66;49.58;99213.28;4156699;28;20338;-66
2022/08/17 08:35:29;;;;;;;7.93;6.72;;;;;;;27.14;50.71;99235.44;4150762;28;20324;-66
2022/08/17 08:37:45;;;;;;;7.90;6.88;;;;;;;27.94;48.90;99226.13;4156921;28;20270;-66
2022/08/17 08:40:01;;;;;;;10.07;7.10;;;;;;;27.75;49.46;99228.78;4154638;28;20228;-66
2022/08/17 08:42:09;;;;;;;9.18;8.35;;;;;;;28.08;49.11;99236.41;4155913;28;20236;-66
2022/08/17 08:44:35;;;;;;;9.70;7.45;;;;;;;27.72;49.59;99234.81;4150893;28;20285;-67
2022/08/17 08:47:13;;;;;;;10.52;9.52;;;;;;;27.29;51.25;99203.72;4156259;28;20243;-67
2022/08/17 08:49:37;;;;;;;12.38;11.00;;;;;;;26.98;52.40;99248.34;4156022;28;20228;-67
2022/08/17 08:52:03;;;;;;;12.88;10.48;;;;;;;26.97;52.75;99240.44;4152551;28;20264;-67
2022/08/17 08:54:43;;;;;;;12.73;11.45;;;;;;;27.51;51.65;99238.75;4153344;28;20310;-66
2022/08/17 08:57:03;;;;;;;13.25;12.05;;;;;;;26.73;52.62;99251.19;4147942;28;20694;-66
2022/08/17 08:59:37;;;;;;;14.35;13.07;;;;;;;26.21;54.17;99245.03;4155207;28;20713;-66
2022/08/17 09:01:59;;;;;;;19.13;17.05;;;;;;;26.62;54.11;99232.16;4156472;28;20259;-66
2022/08/17 09:04:17;;;;;;;15.85;14.35;;;;;;;26.94;53.08;99247.25;4154266;28;20232;-66
2022/08/17 09:07:05;;;;;;;14.73;13.25;;;;;;;27.49;52.11;99244.50;4152649;28;20259;-66
2022/08/17 09:09:18;;;;;;;17.88;13.93;;;;;;;27.05;53.50;99254.28;4155387;28;20244;-66
2022/08/17 09:11:43;;;;;;;14.68;13.25;;;;;;;26.96;53.71;99250.53;4153089;28;20240;-66
2022/08/17 09:14:20;;;;;;;18.08;14.40;;;;;;;26.53;54.57;99252.88;4151762;28;20588;-66
2022/08/17 09:16:47;;;;;;;15.10;13.55;;;;;;;26.29;55.11;99236.31;4157983;28;20616;-66
2022/08/17 09:18:56;;;;;;;15.98;14.38;;;;;;;25.67;55.73;99232.81;4156946;28;20318;-66
2022/08/17 09:21:20;;;;;;;14.88;13.38;;;;;;;26.11;55.16;99222.16;4155154;28;20709;-66
2022/08/17 09:23:32;;;;;;;14.30;12.90;;;;;;;26.13;54.84;99254.56;4145627;28;20850;-66
2022/08/17 09:26:06;;;;;;;13.98;12.65;;;;;;;26.77;53.44;99263.16;4153913;28;20224;-65
2022/08/17 09:28:22;;;;;;;12.85;11.57;;;;;;;26.54;53.55;99309.06;4141634;28;20335;-66
2022/08/17 09:30:28;;;;;;;13.07;11.77;;;;;;;27.04;52.68;99288.16;4139132;28;20287;-66
2022/08/17 09:32:37;;;;;;;11.73;10.68;;;;;;;27.02;52.41;99287.59;4153587;28;20224;-65
2022/08/17 09:34:46;;;;;;;12.40;10.88;;;;;;;26.27;53.45;99309.34;4149883;28;20244;-66
2022/08/17 09:37:10;;;;;;;10.88;9.77;;;;;;;26.80;53.23;99300.78;4155317;28;20688;-66
2022/08/17 09:39:23;;;;;;;12.05;9.88;;;;;;;26.83;53.00;99316.59;4151059;28;20241;-66
2022/08/17 09:41:42;;;;;;;9.90;8.80;;;;;;;27.48;51.03;99327.50;4154955;28;20232;-66
2022/08/17 09:43:57;;;;;;;9.43;8.43;;;;;;;26.90;52.63;99334.28;4153592;28;20240;-66
2022/08/17 09:46:10;;;;;;;9.25;8.13;;;;;;;27.51;50.53;99353.44;4156415;28;20228;-66
2022/08/17 09:48:17;;;;;;;9.90;8.90;;;;;;;26.83;52.20;99352.88;4156058;28;20237;-66
2022/08/17 09:51:12;;;;;;;9.18;8.27;;;;;;;27.77;50.31;99351.38;4153746;28;20648;-66
2022/08/17 09:53:14;;;;;;;9.55;8.15;;;;;;;27.70;51.18;99368.13;4130070;28;20681;-66
2022/08/17 09:55:16;;;;;;;9.68;8.20;;;;;;;27.93;50.47;99372.03;4152924;28;20236;-66
2022/08/17 09:57:36;;;;;;;11.20;9.38;;;;;;;27.67;50.91;99379.59;4151189;28;20236;-66
2022/08/17 09:59:37;;;;;;;10.10;9.10;;;;;;;27.38;51.87;99379.44;4148647;28;20233;-66
2022/08/17 10:01:59;;;;;;;9.43;8.52;;;;;;;26.98;51.88;99390.22;4154730;28;20770;-64
2022/08/17 10:04:07;;;;;;;9.55;8.65;;;;;;;27.58;50.94;99373.88;4153665;28;20252;-64
2022/08/17 10:06:14;;;;;;;9.85;8.85;;;;;;;27.18;51.63;99397.53;4152483;28;20240;-64
2022/08/17 10:08:54;;;;;;;11.52;8.70;;;;;;;27.80;50.27;99384.44;4155293;28;20252;-64
2022/08/17 10:11:10;;;;;;;10.35;9.25;;;;;;;26.62;52.94;99384.00;4155264;28;20228;-64
2022/08/17 10:13:30;;;;;;;11.40;8.52;;;;;;;26.66;52.51;99382.38;4155604;28;20655;-64
2022/08/17 10:15:45;;;;;;;10.23;9.23;;;;;;;26.24;52.95;99391.63;4156557;28;20232;-64
2022/08/17 10:17:56;;;;;;;10.23;9.23;;;;;;;26.89;52.86;99375.47;4154916;28;20693;-64
2022/08/17 10:20:05;;;;;;;10.98;9.73;;;;;;;25.99;54.16;99397.88;4165256;28;20580;-64
2022/08/17 10:27:58;;;;;;;9.05;8.13;;;;;;;24.53;57.80;99388.44;4135178;28;20262;-64
2022/08/17 10:30:03;;;;;;;11.82;8.35;;;;;;;25.18;56.82;99381.78;4150454;28;20286;-64
2022/08/17 10:32:09;;;;;;;9.10;8.20;;;;;;;24.00;59.64;99380.09;4153786;28;20224;-63
2022/08/17 10:34:44;;;;;;;9.40;8.50;;;;;;;24.42;58.89;99366.63;4153500;28;20308;-64